Terminal Aerodrome Forecast
Issued by NWS

Home | Current Version | Previous Version | Text Only | Print | Product List | Glossary On
Versions: 1 2 3 4 5 6 7 8 9 10 11 12 13 14 15 16 17
000
FTUS43 KOAX 271124
TAFSNY
TAF
KSNY 271124Z 2712/2812 28009KT P6SM SKC
     FM271600 29010G20KT P6SM SKC
     FM280200 29012KT P6SM SCT100=

USA.gov is the U.S. government's official web portal to all federal, state and local government web resources and services.